Anson County - Jeff Cloud Field Information

FAA: AFP - ICAO: KAFP

Anson County - Jeff Cloud Field (Airport) Location

State North Carolina
County Anson
City Wadesboro
Anson County - Jeff Cloud Field (Airport) is 3 miles north of Wadesboro, NC.
Latitude 35-01-14.2959N
Longitude 080-04-37.6251W
Elevation 299ft

Anson County - Jeff Cloud Field METARs

METAR KAFP 251735Z AUTO 00000KT 10SM CLR 13/02 A2997 RMK AO2 T01280020
Altimeter 29.97"
Temperature 12.8°C (55.0°F)
Wind 0° at 0KT
Clouds Skies are clear.
Visibility 10.0mi
Time observed: 2022-01-25T17:35:00Z

Anson County - Jeff Cloud Field (Airport) Details

Status Operational
Activation May 1941
Ownership Public
Usage Public
Chart CHARLOTTE
ATC on-site No
Beacon schedule sunset-sunrise
Beacon color clear green

Anson County - Jeff Cloud Field (Airport) Contacts

Owner ANSON COUNTY
Owner address 101 S. GREENE STREET, WADESBORO, NC 28170
Owner phone 704-994-3200
Manager ROBERT EVANS
Manager address 2704-C EXCHANGE DRIVE, WHITEVILLE, NC 28405
Manager phone 910-777-4931

Anson County - Jeff Cloud Field Radio Frequencies

Anson County - Jeff Cloud Field (Airport) Radio Frequencies

UNICOM 122.8
Common traffic advisory frequency (CTAF) 122.8